Eibergen, Netherlands
Current Conditions -  °F | °C
As of 4:25 PM on Thursday 30 Oct 2014 (Local Time) from EHDL Reporting Station
Haze Haze  
Wind Chill: 57°   Ceiling: 500
Heat Index: 57°   Visibility: 1.8mi
Dew Point: 57°   Wind: 6mph
Humidity: 100%   Direction: 160°SSE
Pressure: 30.15"   Gusts: NA
Location:  52.1°N, 6.65°E
Report Text: EHDL 301525Z AUTO 16005KT 3000 BR OVC005 14/14 Q1021 YLO
Loading
Personal Weather Stations






























Interactive Weather Map
Tropical Storm Tracking
New forecast layout! Learn more

10-Day Weather Forecast

Advertisements
Track Severe Weather on mobile